MET'MAP v2.0
soon released !

Expected late october,
this new version will be
more efficient, smarter,
and hosted on a brand new
server x3 powerfull...
...and still free !


Not compatible ?
Try the mobile version !

LOG IN : | Subscribe | Disclaimer | Who is Orbifly ? |
ICAO code :

TAF - LGSY Skiros AB - 27 May 2020 19:07 UTC - Data Source NOAA   


- Airport Elevation : 44 ft
- IATA code : SKU
- No reported NOTAMs.


LGSY - Skiros AB

Latest METAR recorded : 2015/08/11 07:50 LGSY 110750Z 28008KT CAVOK 30/18 Q1010 BLU
TAF TAF LGSY
Valid from the 27 at 15:00 until the 28 at 00:00 UTC


271400Z 2715/2724 34012KT 9999 SCT020
PROB40
TEMPO 2715/2718 5000 RA
PROB30
TEMPO 2715/2718 4000 TSRA FEW016CB BKN020

Source NOAA


MET'MAP, your aeronautical weather chart ! - Copyright ORBIFLY December 2007

Programming & Development : Alexandra Zaïnal
Co-Developer : Marc-Olivier Méhu
Technical & hardware support : Manuel Goepfert
Concept & Financing : Baudouin d'Aumeries